4XCIV LGRP-LGRP
Flight info
| Callsign | 4XCIV |
|---|---|
| Flight time | N/A |
| Altitude | 6000 |
| Route | LGRP/06 BANR3Q BANRO BANR2S LGRP/06 |
| Aircraft | C414/L-SC/1000 |
Departure
| Time | 2026-04-30 18:28 |
|---|---|
| Airport | Rhodes International Airport "Diagoras" (LGRP) |
Arrival
| Time | N/A |
|---|---|
| Airport | Rhodes International Airport "Diagoras" (LGRP) |
| Time | Latitude | Longitude | Altitude | Speed | Heading |
|---|---|---|---|---|---|
| 2026-04-30 18:13 | 36.40291 | 28.08743 | 23 ft | 0 kts | 65° |
| 2026-04-30 18:24 | 36.40378 | 28.08693 | 23 ft | 14 kts | 248° |
| 2026-04-30 18:24 | 36.40343 | 28.08574 | 24 ft | 16 kts | 251° |
| 2026-04-30 18:24 | 36.40305 | 28.08440 | 24 ft | 19 kts | 252° |
| 2026-04-30 18:25 | 36.40244 | 28.08235 | 24 ft | 31 kts | 250° |
| 2026-04-30 18:25 | 36.40061 | 28.07612 | 22 ft | 40 kts | 249° |
| 2026-04-30 18:25 | 36.39973 | 28.07315 | 22 ft | 34 kts | 251° |
| 2026-04-30 18:26 | 36.39939 | 28.06947 | 24 ft | 16 kts | 342° |
| 2026-04-30 18:26 | 36.40036 | 28.06933 | 23 ft | 14 kts | 44° |
| 2026-04-30 18:26 | 36.40105 | 28.07144 | 21 ft | 53 kts | 69° |
| 2026-04-30 18:27 | 36.40529 | 28.08577 | 272 ft | 102 kts | 71° |
| 2026-04-30 18:27 | 36.40819 | 28.09423 | 399 ft | 113 kts | 68° |
| 2026-04-30 18:28 | 36.41262 | 28.10901 | 668 ft | 110 kts | 70° |
| 2026-04-30 18:28 | 36.41471 | 28.11782 | 926 ft | 102 kts | 78° |
| 2026-04-30 18:28 | 36.42016 | 28.13476 | 1218 ft | 109 kts | 69° |
| 2026-04-30 18:29 | 36.42293 | 28.14341 | 1401 ft | 108 kts | 68° |
| 2026-04-30 18:29 | 36.43145 | 28.16932 | 1809 ft | 112 kts | 66° |
| 2026-04-30 18:30 | 36.43441 | 28.18697 | 2216 ft | 106 kts | 83° |
| 2026-04-30 18:30 | 36.43895 | 28.20431 | 2616 ft | 106 kts | 66° |
| 2026-04-30 18:31 | 36.44269 | 28.21241 | 2819 ft | 108 kts | 58° |
| 2026-04-30 18:31 | 36.44827 | 28.22957 | 3242 ft | 107 kts | 76° |
| 2026-04-30 18:32 | 36.45148 | 28.24768 | 3617 ft | 107 kts | 73° |
| 2026-04-30 18:32 | 36.45491 | 28.25626 | 3782 ft | 112 kts | 62° |
| 2026-04-30 18:32 | 36.46088 | 28.27337 | 4176 ft | 109 kts | 70° |
| 2026-04-30 18:33 | 36.46389 | 28.28194 | 4405 ft | 108 kts | 66° |
| 2026-04-30 18:33 | 36.47010 | 28.29907 | 4778 ft | 108 kts | 63° |
| 2026-04-30 18:33 | 36.47249 | 28.30788 | 4927 ft | 112 kts | 90° |
| 2026-04-30 18:34 | 36.46968 | 28.31685 | 5090 ft | 118 kts | 129° |
| 2026-04-30 18:34 | 36.45552 | 28.32718 | 5488 ft | 119 kts | 143° |
| 2026-04-30 18:34 | 36.44831 | 28.33219 | 5705 ft | 118 kts | 146° |
| 2026-04-30 18:35 | 36.44101 | 28.33682 | 5880 ft | 121 kts | 151° |
| 2026-04-30 18:35 | 36.43248 | 28.34064 | 6038 ft | 134 kts | 159° |
| 2026-04-30 18:35 | 36.42278 | 28.34398 | 6046 ft | 155 kts | 163° |
| 2026-04-30 18:36 | 36.40044 | 28.35118 | 6076 ft | 176 kts | 159° |
| 2026-04-30 18:36 | 36.39835 | 28.35201 | 6081 ft | 177 kts | 159° |
| 2026-04-30 18:36 | 36.37540 | 28.36127 | 5961 ft | 194 kts | 160° |
| 2026-04-30 18:37 | 36.36259 | 28.36608 | 6001 ft | 194 kts | 161° |
| 2026-04-30 18:37 | 36.34920 | 28.36885 | 6032 ft | 196 kts | 177° |
| 2026-04-30 18:37 | 36.33560 | 28.36691 | 6052 ft | 200 kts | 186° |
| 2026-04-30 18:37 | 36.32185 | 28.36387 | 6008 ft | 203 kts | 189° |
| 2026-04-30 18:38 | 36.30816 | 28.35949 | 6021 ft | 203 kts | 196° |
| 2026-04-30 18:38 | 36.29463 | 28.35414 | 5952 ft | 206 kts | 195° |
| 2026-04-30 18:38 | 36.28098 | 28.34875 | 5977 ft | 204 kts | 194° |
| 2026-04-30 18:38 | 36.26751 | 28.34378 | 6018 ft | 201 kts | 196° |
| 2026-04-30 18:39 | 36.25476 | 28.33669 | 5979 ft | 208 kts | 211° |
| 2026-04-30 18:39 | 36.24468 | 28.32401 | 5998 ft | 209 kts | 239° |
| 2026-04-30 18:39 | 36.23864 | 28.30752 | 5876 ft | 215 kts | 248° |
| 2026-04-30 18:39 | 36.23325 | 28.29058 | 5985 ft | 206 kts | 249° |
| 2026-04-30 18:40 | 36.23183 | 28.27310 | 5987 ft | 206 kts | 286° |
| 2026-04-30 18:40 | 36.23946 | 28.25844 | 5964 ft | 203 kts | 317° |
| 2026-04-30 18:40 | 36.25008 | 28.24702 | 5941 ft | 204 kts | 323° |
| 2026-04-30 18:40 | 36.25952 | 28.23429 | 5985 ft | 205 kts | 307° |
| 2026-04-30 18:41 | 36.26638 | 28.21866 | 5984 ft | 207 kts | 298° |
| 2026-04-30 18:41 | 36.27324 | 28.20283 | 5937 ft | 209 kts | 302° |
| 2026-04-30 18:41 | 36.28044 | 28.18710 | 5918 ft | 208 kts | 303° |
| 2026-04-30 18:41 | 36.28827 | 28.17250 | 5983 ft | 204 kts | 313° |
| 2026-04-30 18:42 | 36.29730 | 28.15888 | 5970 ft | 206 kts | 312° |
| 2026-04-30 18:42 | 36.31396 | 28.12994 | 5922 ft | 210 kts | 307° |
| 2026-04-30 18:42 | 36.32109 | 28.11442 | 5979 ft | 208 kts | 304° |
| 2026-04-30 18:45 | 36.34465 | 28.14742 | 5865 ft | 191 kts | 114° |
| 2026-04-30 18:45 | 36.33917 | 28.16205 | 5964 ft | 186 kts | 115° |
| 2026-04-30 18:45 | 36.33164 | 28.17468 | 5972 ft | 192 kts | 142° |
| 2026-04-30 18:46 | 36.31852 | 28.17645 | 5964 ft | 206 kts | 204° |
| 2026-04-30 18:46 | 36.31029 | 28.16239 | 6012 ft | 209 kts | 259° |
| 2026-04-30 18:46 | 36.30972 | 28.14448 | 6047 ft | 208 kts | 278° |
| 2026-04-30 18:46 | 36.31419 | 28.12767 | 6081 ft | 204 kts | 307° |
| 2026-04-30 18:47 | 36.32239 | 28.11316 | 5989 ft | 208 kts | 310° |
| 2026-04-30 18:47 | 36.33090 | 28.09905 | 6091 ft | 204 kts | 310° |
| 2026-04-30 18:47 | 36.33836 | 28.08394 | 6026 ft | 210 kts | 300° |
| 2026-04-30 18:47 | 36.34718 | 28.07013 | 6046 ft | 201 kts | 334° |
| 2026-04-30 18:48 | 36.36011 | 28.06980 | 6049 ft | 188 kts | 33° |
| 2026-04-30 18:48 | 36.36630 | 28.08306 | 5998 ft | 187 kts | 92° |
| 2026-04-30 18:48 | 36.36181 | 28.09805 | 6010 ft | 188 kts | 116° |
| 2026-04-30 18:48 | 36.35572 | 28.11227 | 5994 ft | 190 kts | 118° |
| 2026-04-30 18:49 | 36.34931 | 28.12656 | 6080 ft | 184 kts | 121° |
| 2026-04-30 18:49 | 36.34323 | 28.14077 | 5975 ft | 191 kts | 115° |
| 2026-04-30 18:49 | 36.33737 | 28.15542 | 6016 ft | 188 kts | 117° |
| 2026-04-30 18:49 | 36.33066 | 28.16924 | 6023 ft | 189 kts | 129° |
| 2026-04-30 18:50 | 36.31900 | 28.17663 | 5996 ft | 201 kts | 178° |
| 2026-04-30 18:50 | 36.30659 | 28.16912 | 6008 ft | 209 kts | 231° |
| 2026-04-30 18:50 | 36.30163 | 28.15252 | 6003 ft | 210 kts | 273° |
| 2026-04-30 18:50 | 36.30730 | 28.13645 | 6025 ft | 204 kts | 315° |
| 2026-04-30 18:51 | 36.31716 | 28.12377 | 5990 ft | 206 kts | 314° |
| 2026-04-30 18:51 | 36.32549 | 28.10931 | 5990 ft | 208 kts | 311° |
| 2026-04-30 18:51 | 36.33446 | 28.09524 | 6042 ft | 202 kts | 314° |
| 2026-04-30 18:51 | 36.34279 | 28.08123 | 6057 ft | 201 kts | 308° |
| 2026-04-30 18:52 | 36.35223 | 28.06814 | 5954 ft | 203 kts | 330° |
| 2026-04-30 18:52 | 36.36511 | 28.06222 | 5979 ft | 195 kts | 354° |
| 2026-04-30 18:52 | 36.37864 | 28.05943 | 5914 ft | 199 kts | 355° |
| 2026-04-30 18:52 | 36.39169 | 28.05373 | 5973 ft | 199 kts | 335° |
| 2026-04-30 18:53 | 36.40325 | 28.04381 | 5932 ft | 203 kts | 326° |
| 2026-04-30 18:53 | 36.41466 | 28.03355 | 5951 ft | 201 kts | 331° |
| 2026-04-30 18:53 | 36.42679 | 28.02517 | 5974 ft | 199 kts | 337° |
| 2026-04-30 18:53 | 36.43961 | 28.01851 | 5909 ft | 201 kts | 348° |
| 2026-04-30 18:54 | 36.45293 | 28.01391 | 5950 ft | 197 kts | 351° |
| 2026-04-30 18:54 | 36.46620 | 28.01043 | 6004 ft | 196 kts | 351° |
| 2026-04-30 18:54 | 36.47939 | 28.00521 | 5949 ft | 201 kts | 340° |
| 2026-04-30 18:54 | 36.49210 | 27.99746 | 5905 ft | 203 kts | 338° |
| 2026-04-30 18:55 | 36.50399 | 27.98814 | 5914 ft | 205 kts | 319° |
| 2026-04-30 18:55 | 36.51099 | 27.95495 | 5960 ft | 209 kts | 258° |
| 2026-04-30 18:55 | 36.50935 | 27.93699 | 5888 ft | 211 kts | 285° |
| 2026-04-30 18:56 | 36.52994 | 27.92064 | 5901 ft | 190 kts | 28° |
| 2026-04-30 18:56 | 36.53746 | 27.93283 | 5918 ft | 185 kts | 81° |
| 2026-04-30 18:56 | 36.53390 | 27.94791 | 5852 ft | 193 kts | 129° |
| 2026-04-30 18:57 | 36.51171 | 27.96558 | 5928 ft | 192 kts | 142° |
| 2026-04-30 18:57 | 36.50143 | 27.97583 | 5981 ft | 190 kts | 134° |
| 2026-04-30 18:57 | 36.49237 | 27.98774 | 6000 ft | 189 kts | 129° |
| 2026-04-30 18:58 | 36.47311 | 28.00993 | 5990 ft | 196 kts | 143° |
| 2026-04-30 18:58 | 36.46180 | 28.01896 | 5973 ft | 196 kts | 144° |
| 2026-04-30 18:58 | 36.45002 | 28.02813 | 5852 ft | 200 kts | 150° |
| 2026-04-30 18:59 | 36.42211 | 28.02863 | 5497 ft | 218 kts | 202° |
| 2026-04-30 19:00 | 36.39087 | 27.99019 | 5016 ft | 214 kts | 259° |
| 2026-04-30 19:00 | 36.39017 | 27.97175 | 4904 ft | 212 kts | 269° |
| 2026-04-30 19:00 | 36.38835 | 27.93620 | 4892 ft | 205 kts | 262° |
| 2026-04-30 19:01 | 36.38315 | 27.90181 | 4925 ft | 200 kts | 258° |
| 2026-04-30 19:01 | 36.38084 | 27.88465 | 4893 ft | 202 kts | 262° |
| 2026-04-30 19:02 | 36.37782 | 27.85079 | 4922 ft | 202 kts | 266° |
| 2026-04-30 19:02 | 36.37588 | 27.81596 | 4931 ft | 201 kts | 269° |
| 2026-04-30 19:03 | 36.37389 | 27.78150 | 4954 ft | 201 kts | 264° |
| 2026-04-30 19:03 | 36.36881 | 27.74760 | 4984 ft | 199 kts | 257° |
| 2026-04-30 19:04 | 36.35657 | 27.71835 | 5041 ft | 192 kts | 205° |
| 2026-04-30 19:04 | 36.33302 | 27.72295 | 5026 ft | 178 kts | 126° |
| 2026-04-30 19:05 | 36.32346 | 27.75127 | 4992 ft | 178 kts | 109° |
| 2026-04-30 19:05 | 36.32355 | 27.78126 | 5001 ft | 176 kts | 81° |
| 2026-04-30 19:06 | 36.32825 | 27.81101 | 5018 ft | 176 kts | 77° |
| 2026-04-30 19:06 | 36.33162 | 27.82514 | 5123 ft | 172 kts | 73° |
| 2026-04-30 19:06 | 36.33931 | 27.85418 | 5016 ft | 179 kts | 73° |
| 2026-04-30 19:07 | 36.34732 | 27.88302 | 4977 ft | 179 kts | 51° |
| 2026-04-30 19:07 | 36.35812 | 27.89034 | 5077 ft | 180 kts | 15° |
| 2026-04-30 19:08 | 36.37883 | 27.87546 | 5045 ft | 198 kts | 289° |
| 2026-04-30 19:08 | 36.37317 | 27.84191 | 4938 ft | 202 kts | 252° |
| 2026-04-30 19:08 | 36.36879 | 27.82532 | 4968 ft | 201 kts | 251° |
| 2026-04-30 19:09 | 36.36129 | 27.79205 | 5067 ft | 196 kts | 253° |
| 2026-04-30 19:09 | 36.35678 | 27.77591 | 4980 ft | 198 kts | 250° |
| 2026-04-30 19:09 | 36.35242 | 27.75980 | 4916 ft | 197 kts | 250° |
| 2026-04-30 19:10 | 36.33288 | 27.74552 | 4975 ft | 180 kts | 162° |
| 2026-04-30 19:10 | 36.31987 | 27.76652 | 4932 ft | 167 kts | 76° |
| 2026-04-30 19:11 | 36.32261 | 27.78035 | 4813 ft | 167 kts | 77° |
| 2026-04-30 19:11 | 36.32715 | 27.80851 | 4355 ft | 168 kts | 83° |
| 2026-04-30 19:11 | 36.32876 | 27.82277 | 4101 ft | 167 kts | 81° |
| 2026-04-30 19:12 | 36.33111 | 27.83609 | 3835 ft | 150 kts | 75° |
| 2026-04-30 19:12 | 36.33451 | 27.84824 | 3502 ft | 146 kts | 69° |
| 2026-04-30 19:12 | 36.33837 | 27.85923 | 3423 ft | 135 kts | 65° |
| 2026-04-30 19:13 | 36.34641 | 27.87964 | 3295 ft | 130 kts | 66° |
| 2026-04-30 19:13 | 36.35227 | 27.89987 | 2883 ft | 117 kts | 74° |
| 2026-04-30 19:13 | 36.35402 | 27.90913 | 2669 ft | 109 kts | 78° |
| 2026-04-30 19:14 | 36.35557 | 27.91848 | 2478 ft | 110 kts | 77° |
| 2026-04-30 19:14 | 36.35760 | 27.92739 | 2410 ft | 106 kts | 72° |
| 2026-04-30 19:14 | 36.36085 | 27.93558 | 2277 ft | 108 kts | 65° |
| 2026-04-30 19:14 | 36.36406 | 27.94391 | 2140 ft | 107 kts | 68° |
| 2026-04-30 19:15 | 36.36646 | 27.95252 | 1992 ft | 108 kts | 75° |
| 2026-04-30 19:15 | 36.37136 | 27.96989 | 1742 ft | 106 kts | 70° |
| 2026-04-30 19:15 | 36.37384 | 27.97836 | 1655 ft | 103 kts | 72° |
| 2026-04-30 19:16 | 36.37578 | 27.98692 | 1520 ft | 104 kts | 70° |
| 2026-04-30 19:16 | 36.37877 | 27.99530 | 1372 ft | 107 kts | 65° |
| 2026-04-30 19:16 | 36.38397 | 28.01271 | 1140 ft | 108 kts | 73° |
| 2026-04-30 19:17 | 36.38627 | 28.02181 | 1230 ft | 110 kts | 75° |
| 2026-04-30 19:17 | 36.39263 | 28.04110 | 1904 ft | 126 kts | 65° |
| 2026-04-30 19:17 | 36.39602 | 28.05141 | 2281 ft | 134 kts | 71° |
| 2026-04-30 19:18 | 36.39965 | 28.06722 | 2760 ft | 137 kts | 73° |
| 2026-04-30 19:18 | 36.40879 | 28.08189 | 3434 ft | 132 kts | 47° |
| 2026-04-30 19:18 | 36.41273 | 28.08777 | 3585 ft | 136 kts | 60° |
| 2026-04-30 19:19 | 36.41742 | 28.09762 | 3882 ft | 138 kts | 56° |
| 2026-04-30 19:19 | 36.42319 | 28.10738 | 4163 ft | 138 kts | 58° |
| 2026-04-30 19:19 | 36.43341 | 28.12673 | 4788 ft | 139 kts | 54° |
| 2026-04-30 19:20 | 36.44034 | 28.13566 | 4994 ft | 145 kts | 45° |
| 2026-04-30 19:20 | 36.44872 | 28.14366 | 5018 ft | 162 kts | 34° |
| 2026-04-30 19:20 | 36.46822 | 28.15929 | 5156 ft | 173 kts | 35° |
| 2026-04-30 19:21 | 36.47875 | 28.16721 | 5034 ft | 186 kts | 34° |
| 2026-04-30 19:21 | 36.49516 | 28.19208 | 4473 ft | 190 kts | 67° |
| 2026-04-30 19:22 | 36.50446 | 28.22224 | 3909 ft | 191 kts | 73° |
| 2026-04-30 19:22 | 36.48299 | 28.24705 | 3026 ft | 207 kts | 208° |
| 2026-04-30 19:23 | 36.44751 | 28.21127 | 2224 ft | 211 kts | 221° |
| 2026-04-30 19:24 | 36.43399 | 28.18601 | 1579 ft | 164 kts | 257° |
| 2026-04-30 19:24 | 36.43112 | 28.17243 | 1316 ft | 149 kts | 254° |
| 2026-04-30 19:24 | 36.42313 | 28.14632 | 924 ft | 167 kts | 250° |
| 2026-04-30 19:25 | 36.41402 | 28.11517 | 293 ft | 118 kts | 249° |
| 2026-04-30 19:26 | 36.40895 | 28.09838 | 32 ft | 80 kts | 249° |